BAW2189 EDDL-EGHQ
Flight info
| Callsign | BAW2189 |
|---|---|
| Flight time | 1h 20m |
| Altitude | 18000 |
| Route | NETEX4Z NETEX Z282 DIBIR L179 ELSIK/N0440F380 DCT DENUT L610 KOPUL DCT SAM L620 GIBSO DCT DAWLY |
| Aircraft | A319/M-SDE3FGHIRWY/LB1 |
Departure
| Time | 2026-05-05 20:20 |
|---|---|
| Airport | Düsseldorf Airport (EDDL) |
Arrival
| Time | 2026-05-05 21:40 |
|---|---|
| Airport | Cornwall Airport Newquay (EGHQ) |
| Time | Latitude | Longitude | Altitude | Speed | Heading |
|---|---|---|---|---|---|
| 2026-05-05 19:49 | 51.27596 | 6.75735 | 127 ft | 0 kts | 243° |
| 2026-05-05 20:12 | 51.27601 | 6.75749 | 125 ft | 3 kts | 243° |
| 2026-05-05 20:12 | 51.27610 | 6.75778 | 126 ft | 3 kts | 242° |
| 2026-05-05 20:12 | 51.27620 | 6.75801 | 126 ft | 3 kts | 205° |
| 2026-05-05 20:12 | 51.27639 | 6.75808 | 126 ft | 3 kts | 181° |
| 2026-05-05 20:13 | 51.27656 | 6.75809 | 127 ft | 3 kts | 181° |
| 2026-05-05 20:13 | 51.27667 | 6.75809 | 129 ft | 0 kts | 181° |
| 2026-05-05 20:15 | 51.27665 | 6.75809 | 129 ft | 1 kts | 181° |
| 2026-05-05 20:15 | 51.27638 | 6.75815 | 125 ft | 5 kts | 166° |
| 2026-05-05 20:15 | 51.27594 | 6.75848 | 127 ft | 10 kts | 152° |
| 2026-05-05 20:16 | 51.27536 | 6.75896 | 127 ft | 9 kts | 159° |
| 2026-05-05 20:16 | 51.27485 | 6.75874 | 125 ft | 7 kts | 231° |
| 2026-05-05 20:16 | 51.27468 | 6.75813 | 129 ft | 8 kts | 246° |
| 2026-05-05 20:16 | 51.27445 | 6.75730 | 129 ft | 8 kts | 247° |
| 2026-05-05 20:17 | 51.27464 | 6.75643 | 127 ft | 11 kts | 331° |
| 2026-05-05 20:17 | 51.27546 | 6.75575 | 126 ft | 14 kts | 334° |
| 2026-05-05 20:17 | 51.27640 | 6.75513 | 126 ft | 15 kts | 338° |
| 2026-05-05 20:17 | 51.27734 | 6.75439 | 124 ft | 15 kts | 330° |
| 2026-05-05 20:18 | 51.27824 | 6.75361 | 123 ft | 14 kts | 334° |
| 2026-05-05 20:18 | 51.27913 | 6.75291 | 124 ft | 14 kts | 334° |
| 2026-05-05 20:18 | 51.27998 | 6.75286 | 122 ft | 10 kts | 36° |
| 2026-05-05 20:18 | 51.28023 | 6.75330 | 124 ft | 0 kts | 53° |
| 2026-05-05 20:19 | 51.28023 | 6.75331 | 125 ft | 1 kts | 53° |
| 2026-05-05 20:19 | 51.28132 | 6.75563 | 128 ft | 56 kts | 53° |
| 2026-05-05 20:19 | 51.28495 | 6.76320 | 129 ft | 114 kts | 52° |
| 2026-05-05 20:19 | 51.29073 | 6.77525 | 312 ft | 147 kts | 50° |
| 2026-05-05 20:20 | 51.29664 | 6.78803 | 1082 ft | 142 kts | 52° |
| 2026-05-05 20:20 | 51.30265 | 6.80081 | 1726 ft | 150 kts | 51° |
| 2026-05-05 20:20 | 51.30939 | 6.81463 | 2156 ft | 167 kts | 51° |
| 2026-05-05 20:20 | 51.31692 | 6.83031 | 2516 ft | 189 kts | 54° |
| 2026-05-05 20:21 | 51.32538 | 6.84829 | 2880 ft | 215 kts | 53° |
| 2026-05-05 20:21 | 51.33491 | 6.86853 | 3403 ft | 240 kts | 54° |
| 2026-05-05 20:21 | 51.34534 | 6.89069 | 4175 ft | 256 kts | 49° |
| 2026-05-05 20:21 | 51.36036 | 6.90659 | 5065 ft | 267 kts | 18° |
| 2026-05-05 20:22 | 51.37886 | 6.91167 | 6077 ft | 272 kts | 8° |
| 2026-05-05 20:22 | 51.39775 | 6.91622 | 7056 ft | 276 kts | 10° |
| 2026-05-05 20:22 | 51.41659 | 6.92128 | 8060 ft | 280 kts | 10° |
| 2026-05-05 20:22 | 51.43597 | 6.92667 | 9077 ft | 284 kts | 9° |
| 2026-05-05 20:23 | 51.45571 | 6.93101 | 10013 ft | 289 kts | 1° |
| 2026-05-05 20:23 | 51.47580 | 6.92671 | 10777 ft | 299 kts | 343° |
| 2026-05-05 20:23 | 51.49498 | 6.91110 | 11157 ft | 321 kts | 321° |
| 2026-05-05 20:23 | 51.51001 | 6.88408 | 11812 ft | 330 kts | 300° |
| 2026-05-05 20:24 | 51.51941 | 6.85010 | 12629 ft | 335 kts | 290° |
| 2026-05-05 20:24 | 51.52777 | 6.81489 | 13480 ft | 339 kts | 290° |
| 2026-05-05 20:24 | 51.53625 | 6.77929 | 14233 ft | 344 kts | 290° |
| 2026-05-05 20:24 | 51.54487 | 6.74314 | 14970 ft | 349 kts | 288° |
| 2026-05-05 20:25 | 51.55053 | 6.70523 | 15673 ft | 351 kts | 275° |
| 2026-05-05 20:25 | 51.55303 | 6.66654 | 16423 ft | 354 kts | 274° |
| 2026-05-05 20:25 | 51.55534 | 6.62705 | 17184 ft | 357 kts | 273° |
| 2026-05-05 20:25 | 51.55767 | 6.58705 | 17700 ft | 361 kts | 273° |
| 2026-05-05 20:26 | 51.55999 | 6.54686 | 17853 ft | 361 kts | 273° |
| 2026-05-05 20:26 | 51.56228 | 6.50674 | 17878 ft | 360 kts | 273° |
| 2026-05-05 20:26 | 51.56461 | 6.46660 | 17880 ft | 360 kts | 273° |
| 2026-05-05 20:26 | 51.56691 | 6.42649 | 17880 ft | 361 kts | 273° |
| 2026-05-05 20:27 | 51.56924 | 6.38626 | 17884 ft | 361 kts | 273° |
| 2026-05-05 20:27 | 51.57153 | 6.34615 | 17888 ft | 360 kts | 273° |
| 2026-05-05 20:27 | 51.57377 | 6.30657 | 17891 ft | 360 kts | 273° |
| 2026-05-05 20:27 | 51.57604 | 6.26628 | 18175 ft | 363 kts | 274° |
| 2026-05-05 20:28 | 51.57821 | 6.22589 | 18875 ft | 362 kts | 273° |
| 2026-05-05 20:28 | 51.57941 | 6.18540 | 19494 ft | 363 kts | 264° |
| 2026-05-05 20:28 | 51.57570 | 6.14500 | 20095 ft | 366 kts | 258° |
| 2026-05-05 20:28 | 51.57120 | 6.10442 | 20703 ft | 370 kts | 258° |
| 2026-05-05 20:29 | 51.56663 | 6.06355 | 21284 ft | 374 kts | 258° |
| 2026-05-05 20:29 | 51.56203 | 6.02209 | 21867 ft | 378 kts | 258° |
| 2026-05-05 20:29 | 51.55741 | 5.98021 | 22444 ft | 382 kts | 258° |
| 2026-05-05 20:29 | 51.55289 | 5.93839 | 23009 ft | 387 kts | 258° |
| 2026-05-05 20:30 | 51.54845 | 5.89551 | 23564 ft | 391 kts | 259° |
| 2026-05-05 20:30 | 51.54414 | 5.85217 | 24060 ft | 395 kts | 259° |
| 2026-05-05 20:30 | 51.53984 | 5.80832 | 24556 ft | 398 kts | 259° |
| 2026-05-05 20:30 | 51.53545 | 5.76430 | 25059 ft | 401 kts | 258° |
| 2026-05-05 20:31 | 51.53095 | 5.71996 | 25571 ft | 403 kts | 258° |
| 2026-05-05 20:31 | 51.52637 | 5.67535 | 26071 ft | 406 kts | 258° |
| 2026-05-05 20:31 | 51.52168 | 5.63041 | 26551 ft | 409 kts | 258° |
| 2026-05-05 20:31 | 51.51696 | 5.58519 | 27013 ft | 412 kts | 258° |
| 2026-05-05 20:32 | 51.51217 | 5.53957 | 27489 ft | 416 kts | 258° |
| 2026-05-05 20:32 | 51.50738 | 5.49364 | 27957 ft | 419 kts | 258° |
| 2026-05-05 20:32 | 51.50262 | 5.44791 | 28417 ft | 422 kts | 258° |
| 2026-05-05 20:32 | 51.49775 | 5.40121 | 28878 ft | 425 kts | 258° |
| 2026-05-05 20:33 | 51.49284 | 5.35428 | 29335 ft | 428 kts | 257° |
| 2026-05-05 20:33 | 51.48785 | 5.30703 | 29782 ft | 431 kts | 257° |
| 2026-05-05 20:33 | 51.48277 | 5.25949 | 30209 ft | 434 kts | 257° |
| 2026-05-05 20:33 | 51.47760 | 5.21166 | 30617 ft | 436 kts | 257° |
| 2026-05-05 20:34 | 51.47237 | 5.16373 | 31006 ft | 438 kts | 257° |
| 2026-05-05 20:34 | 51.46708 | 5.11539 | 31382 ft | 440 kts | 257° |
| 2026-05-05 20:34 | 51.46183 | 5.06695 | 31793 ft | 441 kts | 257° |
| 2026-05-05 20:34 | 51.45667 | 5.01906 | 32208 ft | 443 kts | 257° |
| 2026-05-05 20:35 | 51.45141 | 4.97046 | 32695 ft | 442 kts | 256° |
| 2026-05-05 20:35 | 51.44609 | 4.92188 | 33213 ft | 441 kts | 256° |
| 2026-05-05 20:35 | 51.44078 | 4.87353 | 33735 ft | 440 kts | 256° |
| 2026-05-05 20:35 | 51.43546 | 4.82532 | 34213 ft | 438 kts | 256° |
| 2026-05-05 20:36 | 51.43015 | 4.77734 | 34678 ft | 437 kts | 257° |
| 2026-05-05 20:36 | 51.42484 | 4.72958 | 35165 ft | 434 kts | 257° |
| 2026-05-05 20:36 | 51.41950 | 4.68209 | 35614 ft | 432 kts | 257° |
| 2026-05-05 20:36 | 51.41421 | 4.63475 | 36025 ft | 431 kts | 257° |
| 2026-05-05 20:37 | 51.40894 | 4.58760 | 36417 ft | 430 kts | 257° |
| 2026-05-05 20:37 | 51.40542 | 4.55642 | 36666 ft | 429 kts | 257° |
| 2026-05-05 20:37 | 51.39837 | 4.49419 | 37157 ft | 428 kts | 257° |
| 2026-05-05 20:37 | 51.39305 | 4.44734 | 37521 ft | 427 kts | 257° |
| 2026-05-05 20:38 | 51.38772 | 4.40053 | 37837 ft | 428 kts | 257° |
| 2026-05-05 20:38 | 51.37692 | 4.30677 | 37892 ft | 428 kts | 257° |
| 2026-05-05 20:39 | 51.36606 | 4.21297 | 37891 ft | 428 kts | 257° |
| 2026-05-05 20:39 | 51.35524 | 4.11926 | 37893 ft | 428 kts | 257° |
| 2026-05-05 20:40 | 51.34422 | 4.02564 | 37894 ft | 428 kts | 257° |
| 2026-05-05 20:40 | 51.33321 | 3.93256 | 37895 ft | 428 kts | 257° |
| 2026-05-05 20:41 | 51.32210 | 3.83900 | 37892 ft | 428 kts | 257° |
| 2026-05-05 20:41 | 51.31081 | 3.74560 | 37906 ft | 428 kts | 257° |
| 2026-05-05 20:42 | 51.29952 | 3.65230 | 37901 ft | 428 kts | 257° |
| 2026-05-05 20:42 | 51.28819 | 3.55889 | 37908 ft | 428 kts | 257° |
| 2026-05-05 20:43 | 51.27677 | 3.46560 | 37892 ft | 428 kts | 257° |
| 2026-05-05 20:43 | 51.27461 | 3.37047 | 37896 ft | 433 kts | 276° |
| 2026-05-05 20:44 | 51.28641 | 3.27650 | 37913 ft | 435 kts | 279° |
| 2026-05-05 20:44 | 51.29853 | 3.18191 | 37923 ft | 434 kts | 278° |
| 2026-05-05 20:45 | 51.31635 | 3.04019 | 37925 ft | 433 kts | 278° |
| 2026-05-05 20:45 | 51.32817 | 2.94575 | 37926 ft | 432 kts | 278° |
| 2026-05-05 20:46 | 51.33996 | 2.85147 | 37940 ft | 432 kts | 279° |
| 2026-05-05 20:46 | 51.35159 | 2.75777 | 37935 ft | 432 kts | 280° |
| 2026-05-05 20:47 | 51.36324 | 2.66350 | 37942 ft | 432 kts | 279° |
| 2026-05-05 20:47 | 51.37485 | 2.56931 | 37938 ft | 431 kts | 278° |
| 2026-05-05 20:48 | 51.38639 | 2.47518 | 37928 ft | 431 kts | 279° |
| 2026-05-05 20:48 | 51.39783 | 2.38086 | 37940 ft | 431 kts | 277° |
| 2026-05-05 20:49 | 51.40918 | 2.28643 | 37940 ft | 432 kts | 278° |
| 2026-05-05 20:49 | 51.42057 | 2.19189 | 37940 ft | 432 kts | 279° |
| 2026-05-05 20:50 | 51.43017 | 2.11337 | 37939 ft | 432 kts | 280° |
| 2026-05-05 20:50 | 51.44353 | 2.00349 | 37948 ft | 432 kts | 278° |
| 2026-05-05 20:51 | 51.45477 | 1.90888 | 37962 ft | 432 kts | 278° |
| 2026-05-05 20:51 | 51.46585 | 1.81404 | 37955 ft | 433 kts | 279° |
| 2026-05-05 20:52 | 51.47680 | 1.71893 | 37960 ft | 433 kts | 279° |
| 2026-05-05 20:52 | 51.48762 | 1.62402 | 37957 ft | 433 kts | 278° |
| 2026-05-05 20:53 | 51.49848 | 1.52891 | 37953 ft | 433 kts | 279° |
| 2026-05-05 20:53 | 51.50914 | 1.43458 | 37959 ft | 432 kts | 278° |
| 2026-05-05 20:54 | 51.51978 | 1.33945 | 37966 ft | 432 kts | 278° |
| 2026-05-05 20:54 | 51.53030 | 1.24440 | 37964 ft | 432 kts | 278° |
| 2026-05-05 20:55 | 51.53647 | 1.14930 | 37964 ft | 429 kts | 265° |
| 2026-05-05 20:55 | 51.52408 | 1.05637 | 37962 ft | 426 kts | 249° |
| 2026-05-05 20:56 | 51.50387 | 0.96690 | 37961 ft | 426 kts | 249° |
| 2026-05-05 20:56 | 51.48383 | 0.87739 | 37970 ft | 426 kts | 249° |
| 2026-05-05 20:57 | 51.46713 | 0.80308 | 37968 ft | 426 kts | 249° |
| 2026-05-05 20:57 | 51.44689 | 0.71364 | 37969 ft | 426 kts | 249° |
| 2026-05-05 20:58 | 51.42318 | 0.60992 | 37970 ft | 426 kts | 249° |
| 2026-05-05 20:58 | 51.40612 | 0.53565 | 37970 ft | 427 kts | 249° |
| 2026-05-05 20:59 | 51.38566 | 0.44660 | 37970 ft | 426 kts | 249° |
| 2026-05-05 20:59 | 51.36512 | 0.35767 | 37973 ft | 425 kts | 249° |
| 2026-05-05 21:00 | 51.34457 | 0.26898 | 37972 ft | 425 kts | 249° |
| 2026-05-05 21:00 | 51.32396 | 0.18043 | 38050 ft | 425 kts | 249° |
| 2026-05-05 21:01 | 51.30329 | 0.09193 | 38024 ft | 425 kts | 249° |
| 2026-05-05 21:01 | 51.28247 | 0.00331 | 37995 ft | 426 kts | 249° |
| 2026-05-05 21:02 | 51.26167 | -0.08468 | 37963 ft | 426 kts | 249° |
| 2026-05-05 21:02 | 51.24423 | -0.15846 | 37966 ft | 426 kts | 249° |
| 2026-05-05 21:03 | 51.22327 | -0.24689 | 37968 ft | 426 kts | 249° |
| 2026-05-05 21:03 | 51.20220 | -0.33532 | 37969 ft | 426 kts | 249° |
| 2026-05-05 21:04 | 51.18099 | -0.42359 | 37966 ft | 426 kts | 248° |
| 2026-05-05 21:04 | 51.15977 | -0.51180 | 37962 ft | 426 kts | 248° |
| 2026-05-05 21:05 | 51.13871 | -0.59936 | 37964 ft | 426 kts | 248° |
| 2026-05-05 21:05 | 51.11738 | -0.68740 | 37967 ft | 426 kts | 248° |
| 2026-05-05 21:06 | 51.09592 | -0.77535 | 37970 ft | 426 kts | 248° |
| 2026-05-05 21:06 | 51.07446 | -0.86323 | 37970 ft | 426 kts | 248° |
| 2026-05-05 21:07 | 51.05294 | -0.95106 | 37973 ft | 426 kts | 249° |
| 2026-05-05 21:07 | 51.03153 | -1.03820 | 37972 ft | 426 kts | 248° |
| 2026-05-05 21:08 | 51.00991 | -1.12578 | 37979 ft | 426 kts | 248° |
| 2026-05-05 21:08 | 50.98814 | -1.21331 | 37982 ft | 426 kts | 248° |
| 2026-05-05 21:09 | 50.96633 | -1.30077 | 37980 ft | 426 kts | 248° |
| 2026-05-05 21:09 | 50.94764 | -1.38981 | 37980 ft | 426 kts | 255° |
| 2026-05-05 21:10 | 50.93235 | -1.47996 | 37986 ft | 426 kts | 255° |
| 2026-05-05 21:10 | 50.91682 | -1.57101 | 37062 ft | 433 kts | 254° |
| 2026-05-05 21:11 | 50.90890 | -1.61712 | 36414 ft | 435 kts | 254° |
| 2026-05-05 21:11 | 50.90092 | -1.66342 | 35930 ft | 433 kts | 254° |
| 2026-05-05 21:11 | 50.89303 | -1.70916 | 35491 ft | 429 kts | 253° |
| 2026-05-05 21:11 | 50.88516 | -1.75455 | 35051 ft | 425 kts | 253° |
| 2026-05-05 21:12 | 50.87733 | -1.79958 | 34603 ft | 422 kts | 253° |
| 2026-05-05 21:12 | 50.86955 | -1.84421 | 34150 ft | 419 kts | 253° |
| 2026-05-05 21:12 | 50.86178 | -1.88857 | 33650 ft | 416 kts | 253° |
| 2026-05-05 21:12 | 50.85404 | -1.93245 | 33194 ft | 412 kts | 253° |
| 2026-05-05 21:13 | 50.84640 | -1.97585 | 32744 ft | 407 kts | 253° |
| 2026-05-05 21:13 | 50.83889 | -2.01868 | 32311 ft | 402 kts | 253° |
| 2026-05-05 21:13 | 50.83146 | -2.06106 | 31880 ft | 397 kts | 253° |
| 2026-05-05 21:13 | 50.82412 | -2.10295 | 31464 ft | 393 kts | 253° |
| 2026-05-05 21:14 | 50.81682 | -2.14434 | 31050 ft | 389 kts | 253° |
| 2026-05-05 21:14 | 50.80956 | -2.18522 | 30646 ft | 384 kts | 253° |
| 2026-05-05 21:14 | 50.80236 | -2.22557 | 30262 ft | 380 kts | 253° |
| 2026-05-05 21:14 | 50.79518 | -2.26571 | 29850 ft | 377 kts | 253° |
| 2026-05-05 21:15 | 50.78810 | -2.30529 | 29473 ft | 372 kts | 253° |
| 2026-05-05 21:15 | 50.78110 | -2.34446 | 29118 ft | 367 kts | 253° |
| 2026-05-05 21:15 | 50.77418 | -2.38308 | 28748 ft | 363 kts | 253° |
| 2026-05-05 21:15 | 50.76732 | -2.42121 | 28409 ft | 359 kts | 253° |
| 2026-05-05 21:16 | 50.76052 | -2.45894 | 28068 ft | 355 kts | 253° |
| 2026-05-05 21:16 | 50.75378 | -2.49621 | 27725 ft | 351 kts | 253° |
| 2026-05-05 21:16 | 50.74710 | -2.53311 | 27374 ft | 347 kts | 254° |
| 2026-05-05 21:16 | 50.74058 | -2.56911 | 27032 ft | 343 kts | 254° |
| 2026-05-05 21:17 | 50.73405 | -2.60510 | 26681 ft | 339 kts | 254° |
| 2026-05-05 21:17 | 50.72759 | -2.64069 | 26332 ft | 335 kts | 254° |
| 2026-05-05 21:17 | 50.72118 | -2.67588 | 25985 ft | 332 kts | 254° |
| 2026-05-05 21:17 | 50.71479 | -2.71075 | 25628 ft | 329 kts | 254° |
| 2026-05-05 21:18 | 50.70846 | -2.74527 | 25267 ft | 326 kts | 254° |
| 2026-05-05 21:18 | 50.70217 | -2.77953 | 24909 ft | 324 kts | 254° |
| 2026-05-05 21:18 | 50.69591 | -2.81353 | 24545 ft | 322 kts | 254° |
| 2026-05-05 21:18 | 50.68971 | -2.84728 | 24178 ft | 320 kts | 254° |
| 2026-05-05 21:19 | 50.68352 | -2.88086 | 23817 ft | 318 kts | 255° |
| 2026-05-05 21:19 | 50.67736 | -2.91425 | 23430 ft | 316 kts | 255° |
| 2026-05-05 21:19 | 50.67121 | -2.94744 | 23042 ft | 314 kts | 255° |
| 2026-05-05 21:19 | 50.66511 | -2.98031 | 22681 ft | 311 kts | 255° |
| 2026-05-05 21:20 | 50.65908 | -3.01286 | 22323 ft | 308 kts | 255° |
| 2026-05-05 21:20 | 50.65307 | -3.04522 | 21968 ft | 306 kts | 254° |
| 2026-05-05 21:20 | 50.64708 | -3.07738 | 21614 ft | 305 kts | 254° |
| 2026-05-05 21:20 | 50.64109 | -3.10941 | 21260 ft | 304 kts | 254° |
| 2026-05-05 21:21 | 50.63520 | -3.14100 | 20908 ft | 303 kts | 254° |
| 2026-05-05 21:21 | 50.62925 | -3.17285 | 20557 ft | 303 kts | 254° |
| 2026-05-05 21:21 | 50.62330 | -3.20456 | 20197 ft | 302 kts | 254° |
| 2026-05-05 21:21 | 50.61733 | -3.23630 | 19844 ft | 301 kts | 254° |
| 2026-05-05 21:22 | 50.61139 | -3.26790 | 19490 ft | 301 kts | 254° |
| 2026-05-05 21:22 | 50.60547 | -3.29938 | 19143 ft | 300 kts | 254° |
| 2026-05-05 21:22 | 50.59952 | -3.33083 | 18784 ft | 299 kts | 255° |
| 2026-05-05 21:22 | 50.59357 | -3.36223 | 18424 ft | 299 kts | 254° |
| 2026-05-05 21:23 | 50.58759 | -3.39365 | 18043 ft | 299 kts | 254° |
| 2026-05-05 21:23 | 50.58161 | -3.42501 | 17687 ft | 298 kts | 255° |
| 2026-05-05 21:23 | 50.57571 | -3.45607 | 17337 ft | 296 kts | 255° |
| 2026-05-05 21:23 | 50.57013 | -3.48713 | 16989 ft | 294 kts | 256° |
| 2026-05-05 21:24 | 50.56524 | -3.51826 | 16647 ft | 292 kts | 257° |
| 2026-05-05 21:24 | 50.56065 | -3.54929 | 16309 ft | 291 kts | 258° |
| 2026-05-05 21:24 | 50.55613 | -3.58027 | 15969 ft | 290 kts | 258° |
| 2026-05-05 21:24 | 50.55158 | -3.61111 | 15626 ft | 289 kts | 258° |
| 2026-05-05 21:25 | 50.54696 | -3.64178 | 15282 ft | 288 kts | 258° |
| 2026-05-05 21:25 | 50.54230 | -3.67233 | 14945 ft | 287 kts | 257° |
| 2026-05-05 21:25 | 50.53760 | -3.70281 | 14605 ft | 286 kts | 258° |
| 2026-05-05 21:25 | 50.53290 | -3.73324 | 14266 ft | 286 kts | 257° |
| 2026-05-05 21:26 | 50.52822 | -3.76350 | 13931 ft | 285 kts | 257° |
| 2026-05-05 21:26 | 50.52353 | -3.79362 | 13567 ft | 284 kts | 257° |
| 2026-05-05 21:26 | 50.51886 | -3.82362 | 13220 ft | 282 kts | 257° |
| 2026-05-05 21:26 | 50.51423 | -3.85339 | 12883 ft | 279 kts | 257° |
| 2026-05-05 21:27 | 50.50963 | -3.88300 | 12546 ft | 278 kts | 258° |
| 2026-05-05 21:27 | 50.50505 | -3.91242 | 12218 ft | 276 kts | 257° |
| 2026-05-05 21:27 | 50.50052 | -3.94142 | 12044 ft | 269 kts | 258° |
| 2026-05-05 21:27 | 50.49610 | -3.96954 | 11912 ft | 262 kts | 258° |
| 2026-05-05 21:28 | 50.49175 | -3.99709 | 11691 ft | 258 kts | 259° |
| 2026-05-05 21:28 | 50.48746 | -4.02429 | 11430 ft | 257 kts | 258° |
| 2026-05-05 21:28 | 50.48318 | -4.05147 | 11157 ft | 256 kts | 257° |
| 2026-05-05 21:28 | 50.47892 | -4.07857 | 10870 ft | 256 kts | 259° |
| 2026-05-05 21:29 | 50.47470 | -4.10531 | 10593 ft | 255 kts | 259° |
| 2026-05-05 21:29 | 50.47043 | -4.13235 | 10323 ft | 255 kts | 258° |
| 2026-05-05 21:29 | 50.46615 | -4.15933 | 10041 ft | 255 kts | 259° |
| 2026-05-05 21:29 | 50.46187 | -4.18621 | 9753 ft | 253 kts | 258° |
| 2026-05-05 21:30 | 50.45760 | -4.21294 | 9468 ft | 252 kts | 259° |
| 2026-05-05 21:30 | 50.45336 | -4.23953 | 9194 ft | 251 kts | 258° |
| 2026-05-05 21:30 | 50.44914 | -4.26602 | 8916 ft | 250 kts | 258° |
| 2026-05-05 21:30 | 50.44493 | -4.29240 | 8626 ft | 249 kts | 257° |
| 2026-05-05 21:31 | 50.44069 | -4.31868 | 8339 ft | 248 kts | 258° |
| 2026-05-05 21:31 | 50.43646 | -4.34487 | 8056 ft | 247 kts | 257° |
| 2026-05-05 21:31 | 50.43224 | -4.37095 | 7774 ft | 246 kts | 257° |
| 2026-05-05 21:31 | 50.42808 | -4.39689 | 7486 ft | 245 kts | 258° |
| 2026-05-05 21:32 | 50.42392 | -4.42276 | 7200 ft | 245 kts | 259° |
| 2026-05-05 21:32 | 50.41976 | -4.44859 | 6917 ft | 244 kts | 257° |
| 2026-05-05 21:32 | 50.41560 | -4.47427 | 6644 ft | 243 kts | 258° |
| 2026-05-05 21:32 | 50.41147 | -4.49986 | 6351 ft | 242 kts | 257° |
| 2026-05-05 21:33 | 50.40733 | -4.52540 | 6070 ft | 241 kts | 257° |
| 2026-05-05 21:33 | 50.40320 | -4.55084 | 5736 ft | 241 kts | 257° |
| 2026-05-05 21:33 | 50.39905 | -4.57634 | 5390 ft | 242 kts | 256° |
| 2026-05-05 21:33 | 50.39488 | -4.60184 | 5083 ft | 242 kts | 257° |
| 2026-05-05 21:34 | 50.39071 | -4.62742 | 4722 ft | 243 kts | 257° |
| 2026-05-05 21:34 | 50.38642 | -4.65386 | 4039 ft | 258 kts | 257° |
| 2026-05-05 21:34 | 50.38200 | -4.68080 | 3893 ft | 252 kts | 259° |
| 2026-05-05 21:34 | 50.37772 | -4.70669 | 3745 ft | 240 kts | 258° |
| 2026-05-05 21:35 | 50.37363 | -4.73129 | 3620 ft | 227 kts | 258° |
| 2026-05-05 21:35 | 50.36979 | -4.75457 | 3484 ft | 215 kts | 258° |
| 2026-05-05 21:35 | 50.36628 | -4.77693 | 3359 ft | 206 kts | 265° |
| 2026-05-05 21:35 | 50.36721 | -4.79851 | 3129 ft | 196 kts | 293° |
| 2026-05-05 21:36 | 50.37326 | -4.81695 | 2920 ft | 186 kts | 304° |
| 2026-05-05 21:36 | 50.37977 | -4.83406 | 2608 ft | 178 kts | 305° |
| 2026-05-05 21:36 | 50.38594 | -4.85032 | 2388 ft | 170 kts | 306° |
| 2026-05-05 21:36 | 50.39185 | -4.86592 | 2153 ft | 163 kts | 306° |
| 2026-05-05 21:37 | 50.39744 | -4.88070 | 1938 ft | 149 kts | 306° |
| 2026-05-05 21:37 | 50.40232 | -4.89363 | 1745 ft | 129 kts | 307° |
| 2026-05-05 21:37 | 50.40677 | -4.90539 | 1571 ft | 123 kts | 307° |
| 2026-05-05 21:37 | 50.41110 | -4.91679 | 1401 ft | 121 kts | 307° |
| 2026-05-05 21:38 | 50.41535 | -4.92802 | 1242 ft | 118 kts | 307° |
| 2026-05-05 21:38 | 50.41953 | -4.93907 | 1074 ft | 117 kts | 307° |
| 2026-05-05 21:38 | 50.42364 | -4.94996 | 920 ft | 116 kts | 308° |
| 2026-05-05 21:38 | 50.42776 | -4.96085 | 757 ft | 118 kts | 305° |
| 2026-05-05 21:39 | 50.43198 | -4.97201 | 581 ft | 120 kts | 303° |
| 2026-05-05 21:39 | 50.43612 | -4.98311 | 408 ft | 118 kts | 306° |
| 2026-05-05 21:39 | 50.44012 | -4.99356 | 351 ft | 101 kts | 301° |
| 2026-05-05 21:39 | 50.44311 | -5.00147 | 341 ft | 68 kts | 301° |
| 2026-05-05 21:40 | 50.44485 | -5.00620 | 328 ft | 42 kts | 300° |
| 2026-05-05 21:40 | 50.44584 | -5.00887 | 320 ft | 23 kts | 301° |
| 2026-05-05 21:40 | 50.44658 | -5.01078 | 317 ft | 19 kts | 302° |
| 2026-05-05 21:40 | 50.44736 | -5.01151 | 314 ft | 12 kts | 20° |
| 2026-05-05 21:41 | 50.44802 | -5.01044 | 316 ft | 15 kts | 69° |
| 2026-05-05 21:41 | 50.44789 | -5.00886 | 320 ft | 15 kts | 118° |
| 2026-05-05 21:41 | 50.44733 | -5.00738 | 324 ft | 16 kts | 121° |
| 2026-05-05 21:41 | 50.44674 | -5.00583 | 325 ft | 17 kts | 121° |
| 2026-05-05 21:42 | 50.44641 | -5.00484 | 331 ft | 2 kts | 101° |
| 2026-05-05 21:42 | 50.44640 | -5.00470 | 332 ft | 0 kts | 93° |
| 2026-05-05 21:42 | 50.44643 | -5.00451 | 333 ft | 2 kts | 77° |
| 2026-05-05 21:42 | 50.44646 | -5.00430 | 335 ft | 3 kts | 77° |
| 2026-05-05 21:43 | 50.44649 | -5.00411 | 335 ft | 3 kts | 77° |
| 2026-05-05 21:43 | 50.44655 | -5.00363 | 335 ft | 4 kts | 82° |